RU-0421 weather

Otradnaya Airport
Otradnaya, Krasnodar Krai, Russia

Public forecast

Using degrees Celsius for public forecast. Weather courtesy of forecast.io.

METAR (pilot weather report)

Closest report is Stavropol Shpakovskoye Airport, 51.1 nm (94.5 km) NNE. Retrieved 2019/08/25 21:30 UTC (0 seconds ago):

URMT 252130Z 10004MPS 8000 -SHRA BKN020CB 18/17 Q1020 R07/290250 TEMPO 05005G12MPS 0500 FG BKN002 BKN020CB RMK QFE725

TAF (pilot weather forecast)

Forecast is more than 12 hours old.

Closest forecast is Stavropol Shpakovskoye Airport, 51.1 nm (94.5 km) NNE. Retrieved 2019/08/03 03:15 UTC (23 days ago):

TAF URMT 030200Z 0303/0321 31005G12MPS 9999 SCT020